Time;durP1;ratioP1;P1;durP2;ratioP2;P2;SDS_P1;SDS_P2;PMS_P1;PMS_P2;Temp;Humidity;BMP_temperature;BMP_pressure;BME280_temperature;BME280_humidity;BME280_pressure;Samples;Min_cycle;Max_cycle;Signal;HPM_P1;HPM_P2
2023/01/04 00:08:00;;;;;;;56.00;30.80;;;;;;;2.14;83.97;99838.23;420892;1291;108794;-40
2023/01/04 00:18:08;;;;;;;51.60;29.20;;;;;;;1.95;83.89;99839.02;420993;1296;98846;-41
2023/01/04 00:28:16;;;;;;;52.90;28.50;;;;;;;1.81;83.97;99840.64;420949;1283;110827;-40
2023/01/04 00:38:24;;;;;;;45.00;26.80;;;;;;;1.74;83.95;99838.60;420933;1291;106547;-40
2023/01/04 00:48:30;;;;;;;48.20;28.90;;;;;;;1.73;84.02;99837.12;420869;1284;99586;-40
2023/01/04 00:58:41;;;;;;;46.00;28.70;;;;;;;1.69;84.07;99828.09;420887;1292;107140;-40
2023/01/04 01:08:48;;;;;;;44.00;26.60;;;;;;;1.60;83.95;99834.14;420970;1298;98736;-40
2023/01/04 01:29:02;;;;;;;70.50;38.30;;;;;;;1.37;83.96;99852.64;420950;1291;109120;-40
2023/01/04 01:39:09;;;;;;;78.30;41.70;;;;;;;1.23;84.18;99853.89;421034;1298;98939;-40
2023/01/04 01:49:24;;;;;;;56.70;34.80;;;;;;;1.03;83.99;99847.26;421034;1292;113385;-42
2023/01/04 01:59:35;;;;;;;52.90;29.60;;;;;;;0.87;83.91;99828.34;420978;1292;109920;-41
2023/01/04 02:09:44;;;;;;;43.70;25.50;;;;;;;0.84;84.20;99822.70;420790;1292;99274;-43
2023/01/04 02:20:26;;;;;;;37.90;23.80;;;;;;;1.02;84.58;99816.41;420858;1292;107633;-40
2023/01/04 02:31:09;;;;;;;45.90;25.90;;;;;;;1.13;84.73;99801.86;420933;1298;99246;-40
2023/01/04 02:41:15;;;;;;;44.90;27.30;;;;;;;1.16;84.54;99795.81;421356;1259;374830;-39
2023/01/04 02:51:26;;;;;;;71.30;39.30;;;;;;;0.97;84.38;99790.25;420975;1292;107794;-40
2023/01/04 03:53:43;;;;;;;76.70;42.80;;;;;;;-0.09;84.72;99721.91;420865;1294;99439;-42
2023/01/04 04:14:13;;;;;;;68.90;38.40;;;;;;;-0.34;85.16;99714.28;420963;1295;108452;-40
2023/01/04 04:24:24;;;;;;;66.30;38.10;;;;;;;-0.44;85.20;99700.39;420959;1295;99151;-40
2023/01/04 04:34:31;;;;;;;81.10;45.10;;;;;;;-0.51;85.44;99685.58;421035;1298;106957;-40
2023/01/04 04:44:38;;;;;;;93.80;53.40;;;;;;;-0.42;85.50;99676.83;420949;1298;98822;-41
2023/01/04 04:54:45;;;;;;;85.20;48.30;;;;;;;-0.37;85.59;99678.83;421005;1287;112201;-40
2023/01/04 05:04:53;;;;;;;79.00;47.00;;;;;;;-0.38;85.70;99666.60;421004;1296;107382;-39
2023/01/04 05:15:00;;;;;;;79.70;44.20;;;;;;;-0.44;85.84;99659.40;420841;1292;99278;-40
2023/01/04 05:25:10;;;;;;;80.50;44.90;;;;;;;-0.38;85.99;99657.93;420925;1298;107487;-40
2023/01/04 05:35:16;;;;;;;100.00;50.90;;;;;;;-0.27;86.10;99647.84;420928;1284;98870;-40
2023/01/04 05:45:23;;;;;;;93.10;48.10;;;;;;;-0.25;86.03;99641.90;421020;1297;109581;-40
2023/01/04 05:55:31;;;;;;;93.20;50.20;;;;;;;-0.24;86.11;99637.29;420988;1291;107023;-40
2023/01/04 06:05:39;;;;;;;79.20;44.60;;;;;;;-0.19;86.21;99630.66;420922;1292;99078;-39
2023/01/04 06:15:46;;;;;;;84.50;46.30;;;;;;;-0.19;86.20;99625.26;421013;1298;107951;-40
2023/01/04 06:25:53;;;;;;;105.30;53.20;;;;;;;-0.22;86.38;99614.82;420938;1291;99220;-40
2023/01/04 06:36:01;;;;;;;97.70;52.30;;;;;;;-0.31;86.24;99596.87;420923;1295;112790;-40
2023/01/04 06:46:08;;;;;;;109.80;59.90;;;;;;;-0.42;86.17;99597.38;420898;1291;108697;-42
2023/01/04 06:56:16;;;;;;;114.00;59.40;;;;;;;-0.54;86.22;99591.52;421053;1298;99215;-41
2023/01/04 07:06:23;;;;;;;110.40;57.30;;;;;;;-0.60;86.37;99585.62;420932;1295;107694;-39
2023/01/04 07:16:30;;;;;;;122.20;63.60;;;;;;;-0.54;86.54;99570.73;420963;1292;99227;-40
2023/01/04 07:26:38;;;;;;;103.30;56.40;;;;;;;-0.41;86.53;99567.96;420928;1298;111862;-40
2023/01/04 07:36:45;;;;;;;116.40;61.00;;;;;;;-0.14;86.74;99567.62;420787;1292;108091;-40
2023/01/04 07:46:52;;;;;;;136.90;75.40;;;;;;;0.05;86.80;99564.00;420878;1291;99348;-40
2023/01/04 07:56:59;;;;;;;181.00;74.20;;;;;;;0.22;86.86;99563.45;420881;1298;107491;-40
2023/01/04 08:07:06;;;;;;;184.60;82.00;;;;;;;0.89;87.34;99557.14;420753;1298;98145;-42
2023/01/04 08:17:13;;;;;;;157.70;79.00;;;;;;;1.24;87.10;99528.13;420959;1298;112078;-43
2023/01/04 08:27:20;;;;;;;156.90;73.60;;;;;;;2.05;87.85;99523.08;420956;1298;107896;-40
2023/01/04 08:47:40;;;;;;;171.10;70.40;;;;;;;4.36;86.85;99474.80;420825;1291;108114;-41
2023/01/04 08:57:47;;;;;;;123.60;59.80;;;;;;;4.54;86.42;99462.50;420801;1298;99238;-40
2023/01/04 09:07:54;;;;;;;79.00;43.30;;;;;;;4.54;86.28;99465.14;420890;1284;111407;-40
2023/01/04 09:18:00;;;;;;;65.20;32.10;;;;;;;4.40;86.21;99447.04;420835;1291;108650;-41
2023/01/04 09:28:28;;;;;;;43.80;25.70;;;;;;;4.53;86.05;99424.59;420840;1291;98640;-39
2023/01/04 09:38:35;;;;;;;33.00;19.10;;;;;;;4.64;85.70;99411.64;420810;1298;114011;-39
2023/01/04 09:48:44;;;;;;;34.70;18.00;;;;;;;4.83;85.54;99382.41;420779;1298;107704;-40
2023/01/04 09:58:55;;;;;;;37.10;21.30;;;;;;;5.00;85.42;99360.73;420891;1298;99221;-40
2023/01/04 10:09:06;;;;;;;39.00;23.40;;;;;;;5.05;85.15;99326.09;420939;1298;108571;-40
2023/01/04 10:19:17;;;;;;;29.50;17.50;;;;;;;5.06;84.83;99307.66;420762;1292;98554;-38
2023/01/04 10:29:48;;;;;;;27.60;15.30;;;;;;;5.16;84.61;99287.70;420791;1294;111754;-40
2023/01/04 10:39:58;;;;;;;33.80;18.50;;;;;;;5.26;84.63;99258.14;420783;1294;109371;-41
2023/01/04 10:50:09;;;;;;;28.60;16.70;;;;;;;5.24;84.42;99245.16;420822;1298;98372;-40
2023/01/04 11:00:17;;;;;;;21.10;12.70;;;;;;;5.34;84.30;99227.05;420850;1292;108349;-41
2023/01/04 11:10:24;;;;;;;18.90;10.90;;;;;;;5.58;84.15;99200.67;420961;1298;98523;-40
2023/01/04 11:20:31;;;;;;;23.80;11.90;;;;;;;5.78;83.94;99170.77;421012;1298;111793;-40
2023/01/04 11:30:45;;;;;;;19.70;10.80;;;;;;;5.86;83.80;99148.48;420929;1298;107723;-39
2023/01/04 11:51:19;;;;;;;9.10;5.20;;;;;;;5.91;82.74;99094.85;420935;1299;112325;-40
2023/01/04 12:01:27;;;;;;;14.40;6.20;;;;;;;6.00;82.30;99062.84;420815;1298;108063;-40
2023/01/04 12:11:40;;;;;;;14.00;7.10;;;;;;;5.95;81.74;99049.71;420998;1291;98866;-39
2023/01/04 12:21:48;;;;;;;11.90;6.60;;;;;;;5.77;81.52;99028.17;420914;1282;108086;-40
2023/01/04 12:32:33;;;;;;;11.90;6.20;;;;;;;5.72;81.08;99004.48;420941;1287;99045;-40
2023/01/04 12:43:19;;;;;;;12.60;6.90;;;;;;;5.72;80.70;98970.63;420936;1298;111447;-41
2023/01/04 12:53:55;;;;;;;16.70;8.50;;;;;;;5.70;80.56;98948.06;420767;1298;108996;-41
2023/01/04 13:04:00;;;;;;;9.30;6.00;;;;;;;5.64;80.37;98916.85;420938;1292;99229;-40
2023/01/04 13:14:14;;;;;;;13.80;7.70;;;;;;;5.69;80.19;98884.52;420796;1292;109635;-40
2023/01/04 13:24:23;;;;;;;14.20;7.30;;;;;;;5.66;79.82;98857.54;420873;1281;98371;-40
2023/01/04 13:34:29;;;;;;;12.40;7.10;;;;;;;5.59;79.67;98837.03;420893;1288;111308;-41
2023/01/04 13:44:53;;;;;;;9.50;6.00;;;;;;;5.55;79.32;98820.59;420917;1295;108075;-40
2023/01/04 13:55:20;;;;;;;12.00;7.80;;;;;;;5.62;79.34;98791.29;420905;1290;99269;-40
2023/01/04 14:05:28;;;;;;;13.60;7.20;;;;;;;5.60;79.23;98769.44;421004;1298;108004;-41
2023/01/04 14:15:34;;;;;;;21.90;7.60;;;;;;;5.55;79.02;98753.81;420872;1289;99258;-40
2023/01/04 14:25:47;;;;;;;14.70;7.50;;;;;;;5.58;78.79;98742.36;420831;1298;111930;-40
2023/01/04 14:36:01;;;;;;;13.20;7.70;;;;;;;5.62;78.89;98714.28;420635;1298;283714;-40
2023/01/04 14:46:09;;;;;;;19.10;9.00;;;;;;;5.61;78.81;98701.73;420912;1291;98361;-40
2023/01/04 14:56:18;;;;;;;20.60;10.50;;;;;;;5.53;78.82;98696.23;420893;1292;108795;-42
2023/01/04 15:06:26;;;;;;;14.50;7.40;;;;;;;5.54;78.71;98677.83;420779;1291;99247;-42
2023/01/04 15:16:33;;;;;;;17.80;10.10;;;;;;;5.56;78.92;98644.26;420887;1294;111174;-41
2023/01/04 15:26:42;;;;;;;19.80;11.80;;;;;;;5.48;79.21;98634.59;420812;1298;107403;-41
2023/01/04 15:36:52;;;;;;;17.10;8.60;;;;;;;5.44;79.42;98637.08;420784;1296;99228;-40
2023/01/04 15:46:59;;;;;;;14.60;8.20;;;;;;;5.44;79.73;98615.23;420591;1292;108569;-39
2023/01/04 15:57:07;;;;;;;16.90;10.20;;;;;;;5.43;80.09;98622.43;420561;1291;99375;-40
2023/01/04 16:07:13;;;;;;;13.30;8.40;;;;;;;5.40;80.40;98612.88;420474;1298;111430;-39
2023/01/04 16:17:20;;;;;;;15.60;9.60;;;;;;;5.39;80.85;98621.04;420542;1296;108525;-40
2023/01/04 16:27:28;;;;;;;24.20;11.50;;;;;;;5.26;81.57;98593.77;420483;1291;98395;-43
2023/01/04 16:57:55;;;;;;;22.40;12.40;;;;;;;5.11;82.87;98533.83;420826;1291;111621;-39
2023/01/04 17:08:02;;;;;;;16.20;10.20;;;;;;;5.13;83.24;98518.66;420645;1298;107750;-41
2023/01/04 17:28:18;;;;;;;14.90;10.30;;;;;;;5.19;83.99;98494.65;420836;1291;107524;-40
2023/01/04 17:38:31;;;;;;;15.60;9.60;;;;;;;5.26;84.53;98489.07;420776;1291;98075;-39
2023/01/04 17:48:38;;;;;;;14.80;8.30;;;;;;;5.33;84.67;98467.66;420811;1299;111003;-40
2023/01/04 17:58:46;;;;;;;17.50;9.70;;;;;;;5.42;84.91;98433.17;420681;1297;108310;-39
2023/01/04 18:08:55;;;;;;;14.60;9.50;;;;;;;5.48;85.26;98418.87;420853;1296;99092;-40
2023/01/04 18:19:02;;;;;;;16.50;10.00;;;;;;;5.52;85.22;98399.42;420871;1298;108372;-40
2023/01/04 18:29:09;;;;;;;14.80;9.50;;;;;;;5.58;85.34;98388.88;420915;1298;98044;-40
2023/01/04 18:39:16;;;;;;;18.70;10.20;;;;;;;5.65;85.18;98373.77;420839;1295;112996;-39
2023/01/04 18:49:24;;;;;;;17.50;10.60;;;;;;;5.73;85.47;98371.42;420747;1298;108033;-41
2023/01/04 18:59:32;;;;;;;19.30;12.20;;;;;;;5.81;85.49;98356.64;420914;1292;97993;-40
2023/01/04 19:09:41;;;;;;;16.10;10.10;;;;;;;5.87;85.44;98350.16;420699;1295;109068;-40
2023/01/04 19:19:48;;;;;;;15.40;10.30;;;;;;;5.92;85.64;98347.32;420709;1295;99245;-42
2023/01/04 19:29:55;;;;;;;14.90;9.80;;;;;;;5.88;85.63;98330.41;420756;1291;111259;-40
2023/01/04 19:40:03;;;;;;;14.80;9.70;;;;;;;5.85;85.81;98318.91;420670;1298;109363;-41
2023/01/04 19:50:11;;;;;;;15.50;8.70;;;;;;;5.87;86.01;98291.77;420792;1298;99109;-40
2023/01/04 20:00:16;;;;;;;15.10;9.50;;;;;;;5.93;86.13;98277.52;420733;1292;108952;-41
2023/01/04 20:10:24;;;;;;;16.30;9.60;;;;;;;5.98;86.15;98282.22;420708;1299;99220;-40
2023/01/04 20:20:31;;;;;;;17.90;9.50;;;;;;;6.02;86.27;98269.55;420899;1299;111963;-41
2023/01/04 20:30:39;;;;;;;12.90;8.60;;;;;;;6.04;86.49;98261.99;420779;1295;107398;-40
2023/01/04 20:40:46;;;;;;;13.90;9.10;;;;;;;6.03;86.58;98243.17;420909;1299;99242;-40
2023/01/04 20:50:54;;;;;;;16.10;9.20;;;;;;;6.01;86.85;98220.95;420858;1294;107587;-40
2023/01/04 21:01:03;;;;;;;15.10;9.70;;;;;;;6.01;87.08;98214.29;420780;1297;99224;-41
2023/01/04 21:11:12;;;;;;;13.10;8.90;;;;;;;6.05;87.19;98205.81;420900;1303;111191;-40
2023/01/04 21:21:20;;;;;;;12.70;8.90;;;;;;;6.14;87.33;98200.11;420784;1304;106946;-39
2023/01/04 21:31:26;;;;;;;12.80;8.50;;;;;;;6.19;87.52;98191.05;420882;1296;99176;-40
2023/01/04 21:41:34;;;;;;;11.60;7.20;;;;;;;6.18;87.91;98165.45;420902;1296;108129;-41
2023/01/04 21:51:40;;;;;;;10.10;8.30;;;;;;;6.20;88.01;98147.19;420730;1292;99224;-41
2023/01/04 22:01:47;;;;;;;8.70;6.40;;;;;;;6.32;88.16;98130.02;420881;1286;111050;-41
2023/01/04 22:11:54;;;;;;;9.60;6.30;;;;;;;6.43;87.96;98124.25;420710;1292;108459;-40
2023/01/04 22:22:02;;;;;;;9.40;6.10;;;;;;;6.57;88.09;98114.66;420890;1295;99746;-40
2023/01/04 22:32:09;;;;;;;8.50;5.60;;;;;;;6.75;88.05;98095.54;420774;1305;108280;-41
2023/01/04 22:42:16;;;;;;;7.80;5.30;;;;;;;6.82;87.77;98090.36;420723;1292;98866;-41
2023/01/04 22:52:24;;;;;;;8.20;5.80;;;;;;;6.89;87.66;98084.23;420914;1295;110978;-41
2023/01/04 23:02:31;;;;;;;9.70;5.60;;;;;;;6.88;87.46;98068.08;420828;1298;108544;-41
2023/01/04 23:12:39;;;;;;;6.40;5.20;;;;;;;6.87;87.47;98045.13;420838;1298;99414;-40
2023/01/04 23:22:46;;;;;;;7.90;5.40;;;;;;;6.83;87.29;98039.36;420845;1299;107542;-41
2023/01/04 23:32:53;;;;;;;5.60;4.60;;;;;;;6.79;87.65;98026.28;420760;1294;99222;-41
2023/01/04 23:53:06;;;;;;;7.50;5.20;;;;;;;6.75;87.68;97978.66;420710;1290;107582;-40
